Time;durP1;ratioP1;P1;durP2;ratioP2;P2;SDS_P1;SDS_P2;PMS_P1;PMS_P2;Temp;Humidity;BMP_temperature;BMP_pressure;BME280_temperature;BME280_humidity;BME280_pressure;Samples;Min_cycle;Max_cycle;Signal;HPM_P1;HPM_P2
2023/12/14 00:00:54;;;;;;;20.77;13.40;;;9.00;99.90;;;;;;5051074;28;20195;-81
2023/12/14 00:03:23;;;;;;;19.17;12.10;;;8.90;99.90;;;;;;5066438;28;20209;-79
2023/12/14 00:05:51;;;;;;;16.97;11.93;;;8.80;99.90;;;;;;5067318;28;20466;-80
2023/12/14 00:08:18;;;;;;;18.17;11.97;;;8.70;99.90;;;;;;5042721;28;20199;-80
2023/12/14 00:10:46;;;;;;;16.77;11.63;;;8.60;99.90;;;;;;5046112;28;20194;-79
2023/12/14 00:13:13;;;;;;;15.43;10.77;;;8.60;99.90;;;;;;5045720;28;20215;-79
2023/12/14 00:15:41;;;;;;;14.17;10.43;;;8.70;99.90;;;;;;5041533;28;20183;-80
2023/12/14 00:18:08;;;;;;;14.73;9.70;;;8.70;99.90;;;;;;5068385;28;20194;-80
2023/12/14 00:20:37;;;;;;;12.77;9.07;;;8.70;99.90;;;;;;5045418;28;20202;-80
2023/12/14 00:23:04;;;;;;;10.97;8.37;;;8.60;99.90;;;;;;5047381;28;20226;-80
2023/12/14 00:25:32;;;;;;;12.53;8.13;;;8.60;99.90;;;;;;5050566;28;20195;-80
2023/12/14 00:27:59;;;;;;;10.40;8.27;;;8.70;99.90;;;;;;5050701;28;20206;-80
2023/12/14 00:30:27;;;;;;;10.63;7.73;;;8.60;99.90;;;;;;5051263;28;20218;-80
2023/12/14 00:32:54;;;;;;;10.57;8.00;;;8.60;99.90;;;;;;5033112;28;20211;-80
2023/12/14 00:35:22;;;;;;;9.37;7.57;;;8.70;99.90;;;;;;5042929;28;20198;-80
2023/12/14 00:37:50;;;;;;;9.67;7.57;;;8.70;99.90;;;;;;5059244;28;20201;-80
2023/12/14 00:40:18;;;;;;;11.40;8.67;;;8.60;99.90;;;;;;5053419;28;20206;-80
2023/12/14 00:42:45;;;;;;;8.40;7.00;;;8.60;99.90;;;;;;5056031;28;20576;-80
2023/12/14 00:45:13;;;;;;;8.87;6.67;;;8.70;99.90;;;;;;5034643;28;20205;-81
2023/12/14 00:47:40;;;;;;;9.97;7.07;;;8.50;99.90;;;;;;5051469;28;20212;-79
2023/12/14 00:50:08;;;;;;;7.33;5.93;;;8.60;99.90;;;;;;5056277;28;20206;-80
2023/12/14 00:52:36;;;;;;;8.73;6.40;;;8.60;99.90;;;;;;5065127;28;20679;-80
2023/12/14 00:55:06;;;;;;;9.77;7.10;;;8.70;99.90;;;;;;5049365;28;20191;-80
2023/12/14 00:57:33;;;;;;;7.23;6.17;;;8.60;99.90;;;;;;5050708;28;20583;-80
2023/12/14 01:00:01;;;;;;;7.33;6.17;;;8.50;99.90;;;;;;5038467;28;20214;-80
2023/12/14 01:02:28;;;;;;;7.13;5.87;;;8.50;99.90;;;;;;5052500;28;20210;-80
2023/12/14 01:04:56;;;;;;;6.53;5.20;;;8.40;99.90;;;;;;5068688;28;20274;-80
2023/12/14 01:07:23;;;;;;;7.30;5.40;;;8.30;99.90;;;;;;5050848;28;20207;-80
2023/12/14 01:09:51;;;;;;;7.53;6.20;;;8.40;99.90;;;;;;5050232;28;20194;-80
2023/12/14 01:12:20;;;;;;;6.73;4.73;;;8.30;99.90;;;;;;5052547;28;20237;-80
2023/12/14 01:14:47;;;;;;;6.37;5.47;;;8.30;99.90;;;;;;5053818;28;20207;-80
2023/12/14 01:17:15;;;;;;;6.27;5.43;;;8.20;99.90;;;;;;5053692;28;20206;-80
2023/12/14 01:19:42;;;;;;;5.87;5.03;;;8.30;99.90;;;;;;5037259;28;20195;-80
2023/12/14 01:22:10;;;;;;;6.67;5.10;;;8.30;99.90;;;;;;5052068;28;20683;-80
2023/12/14 01:24:37;;;;;;;5.97;5.27;;;8.20;99.90;;;;;;5052000;28;20186;-80
2023/12/14 01:27:05;;;;;;;7.73;5.57;;;8.30;99.90;;;;;;5052117;28;20211;-79
2023/12/14 01:29:34;;;;;;;6.53;5.53;;;8.20;99.90;;;;;;5053169;28;20202;-79
2023/12/14 01:32:01;;;;;;;7.10;6.03;;;8.30;99.90;;;;;;5052977;28;20608;-79
2023/12/14 01:34:29;;;;;;;6.63;5.77;;;8.30;99.90;;;;;;5033647;28;20195;-80
2023/12/14 01:36:56;;;;;;;7.73;6.50;;;8.40;99.90;;;;;;5046856;28;20210;-80
2023/12/14 01:39:24;;;;;;;8.33;6.30;;;8.40;99.90;;;;;;5042533;28;20199;-80
2023/12/14 01:41:51;;;;;;;8.20;6.70;;;8.30;99.90;;;;;;5049537;28;20221;-80
2023/12/14 01:44:19;;;;;;;8.53;6.57;;;8.40;99.90;;;;;;5049850;28;20191;-80
2023/12/14 01:46:48;;;;;;;9.20;6.97;;;8.30;99.90;;;;;;5042538;28;20211;-80
2023/12/14 01:49:15;;;;;;;8.97;7.03;;;8.40;99.90;;;;;;5041667;28;20202;-79
2023/12/14 01:51:42;;;;;;;10.83;7.27;;;8.30;99.90;;;;;;5051307;28;20213;-79
2023/12/14 01:54:10;;;;;;;8.93;7.37;;;8.50;99.90;;;;;;5043687;28;20195;-79
2023/12/14 01:56:37;;;;;;;9.87;8.07;;;8.40;99.90;;;;;;5044606;28;20691;-79
2023/12/14 01:59:05;;;;;;;10.43;8.00;;;8.40;99.90;;;;;;5048188;28;20190;-79
2023/12/14 02:01:39;;;;;;;9.03;7.70;;;8.50;99.90;;;;;;5048887;28;20214;-80
2023/12/14 02:04:08;;;;;;;8.70;7.20;;;8.50;99.90;;;;;;5034211;28;20245;-79
2023/12/14 02:06:35;;;;;;;11.27;8.77;;;8.40;99.90;;;;;;5036030;28;20679;-79
2023/12/14 02:09:03;;;;;;;10.47;8.53;;;8.30;99.90;;;;;;5052382;28;20191;-80
2023/12/14 02:11:31;;;;;;;11.07;8.97;;;8.20;99.90;;;;;;5050427;28;20668;-79
2023/12/14 02:13:58;;;;;;;12.27;9.60;;;8.20;99.90;;;;;;5059219;28;20202;-80
2023/12/14 02:16:26;;;;;;;13.23;9.83;;;8.20;99.90;;;;;;5044023;28;20212;-79
2023/12/14 02:18:53;;;;;;;14.73;10.73;;;8.30;99.90;;;;;;5043030;28;20221;-79
2023/12/14 02:21:22;;;;;;;14.53;11.33;;;8.10;99.90;;;;;;5050851;28;20205;-80
2023/12/14 02:23:51;;;;;;;15.03;11.17;;;8.00;99.90;;;;;;5048505;28;20193;-80
2023/12/14 02:26:18;;;;;;;14.40;11.30;;;7.90;99.90;;;;;;5052841;28;20691;-79
2023/12/14 02:28:45;;;;;;;14.77;10.53;;;8.00;99.90;;;;;;5046476;28;20237;-79
2023/12/14 02:31:13;;;;;;;13.23;9.67;;;7.70;99.90;;;;;;5052303;28;20201;-79
2023/12/14 02:33:40;;;;;;;13.47;10.10;;;7.70;99.90;;;;;;5044776;28;20194;-79
2023/12/14 02:36:08;;;;;;;14.07;10.37;;;7.90;99.90;;;;;;5041676;28;20198;-79
2023/12/14 02:38:36;;;;;;;13.57;9.70;;;7.80;99.90;;;;;;5047392;28;20198;-79
2023/12/14 02:41:05;;;;;;;15.23;10.40;;;7.80;99.90;;;;;;5046016;28;20206;-80
2023/12/14 02:43:33;;;;;;;12.77;9.57;;;7.70;99.90;;;;;;5043208;28;20230;-79
2023/12/14 02:46:02;;;;;;;16.30;11.10;;;7.80;99.90;;;;;;5051102;28;20201;-79
2023/12/14 02:48:30;;;;;;;12.67;9.53;;;7.70;99.90;;;;;;5048452;28;20206;-79
2023/12/14 02:50:59;;;;;;;13.67;9.23;;;8.00;99.90;;;;;;5051885;28;20201;-80
2023/12/14 02:53:27;;;;;;;12.80;9.43;;;8.00;99.90;;;;;;5046815;28;20217;-79
2023/12/14 02:55:54;;;;;;;12.67;9.27;;;8.00;99.90;;;;;;5039724;28;20726;-79
2023/12/14 02:58:23;;;;;;;10.47;8.40;;;8.10;99.90;;;;;;5042632;28;20198;-80
2023/12/14 03:00:51;;;;;;;13.60;9.57;;;8.10;99.90;;;;;;5048053;28;20194;-79
2023/12/14 03:03:18;;;;;;;14.00;9.30;;;8.10;99.90;;;;;;5053143;28;20554;-79
2023/12/14 03:05:46;;;;;;;12.27;9.03;;;8.10;99.90;;;;;;5051720;28;20198;-80
2023/12/14 03:08:13;;;;;;;12.87;9.23;;;8.10;99.90;;;;;;5045757;28;20572;-79
2023/12/14 03:10:40;;;;;;;13.67;9.73;;;8.10;99.90;;;;;;5044993;28;20207;-79
2023/12/14 03:13:08;;;;;;;12.20;9.50;;;8.00;99.90;;;;;;5046356;28;20206;-80
2023/12/14 03:15:37;;;;;;;13.30;9.10;;;8.00;99.90;;;;;;5051106;28;20195;-79
2023/12/14 03:18:04;;;;;;;13.60;9.43;;;7.90;99.90;;;;;;5042575;28;20189;-79
2023/12/14 03:20:32;;;;;;;13.77;9.30;;;8.00;99.90;;;;;;5045907;28;20198;-80
2023/12/14 03:22:59;;;;;;;14.07;10.27;;;8.10;99.90;;;;;;5034780;28;20233;-79
2023/12/14 03:25:27;;;;;;;15.43;10.47;;;8.10;99.90;;;;;;5040470;28;20203;-79
2023/12/14 03:27:55;;;;;;;14.57;9.70;;;8.10;99.90;;;;;;5063701;28;20206;-79
2023/12/14 03:30:22;;;;;;;14.00;9.77;;;8.10;99.90;;;;;;5048623;28;20198;-79
2023/12/14 03:32:51;;;;;;;11.20;8.90;;;8.10;99.90;;;;;;5042043;28;20214;-79
2023/12/14 03:35:18;;;;;;;12.67;9.93;;;8.00;99.90;;;;;;5050245;28;20197;-80
2023/12/14 03:37:46;;;;;;;11.37;9.23;;;8.10;99.90;;;;;;5068840;28;20594;-79
2023/12/14 03:40:13;;;;;;;12.60;10.53;;;8.30;99.90;;;;;;5065315;28;20201;-79
2023/12/14 03:42:41;;;;;;;12.27;9.70;;;8.30;99.90;;;;;;5055554;28;20605;-79
2023/12/14 03:45:09;;;;;;;13.73;9.73;;;8.20;99.90;;;;;;5040713;28;20217;-79
2023/12/14 03:47:36;;;;;;;12.90;9.77;;;8.20;99.90;;;;;;5054314;28;20206;-80
2023/12/14 03:50:07;;;;;;;14.57;10.10;;;8.20;99.90;;;;;;5052364;28;20206;-79
2023/12/14 03:52:34;;;;;;;11.23;8.53;;;8.10;99.90;;;;;;5058795;28;20210;-79
2023/12/14 03:55:01;;;;;;;13.40;9.37;;;8.30;99.90;;;;;;5078063;22;20205;-82
2023/12/14 03:57:29;;;;;;;14.57;10.30;;;8.30;99.90;;;;;;5076305;28;20209;-82
2023/12/14 03:59:56;;;;;;;13.93;10.40;;;7.90;99.90;;;;;;5064749;28;20220;-83
2023/12/14 04:02:24;;;;;;;14.23;9.63;;;8.00;99.90;;;;;;5064237;28;20208;-84
2023/12/14 04:04:51;;;;;;;11.73;8.73;;;8.00;99.90;;;;;;5058326;28;20198;-83
2023/12/14 04:07:21;;;;;;;13.53;10.00;;;8.10;99.90;;;;;;5038501;28;20199;-82
2023/12/14 04:09:48;;;;;;;12.87;9.47;;;8.00;99.90;;;;;;5044754;28;20195;-81
2023/12/14 04:12:16;;;;;;;11.33;9.03;;;8.20;99.90;;;;;;5033263;28;20226;-81
2023/12/14 04:14:44;;;;;;;13.67;9.00;;;8.00;99.90;;;;;;5033952;28;20219;-81
2023/12/14 04:17:12;;;;;;;12.80;9.73;;;8.00;99.90;;;;;;5035981;28;20230;-81
2023/12/14 04:19:40;;;;;;;13.87;9.63;;;7.90;99.90;;;;;;5053204;28;20199;-82
2023/12/14 04:22:07;;;;;;;10.90;8.90;;;7.90;99.90;;;;;;5036128;28;20194;-81
2023/12/14 04:24:36;;;;;;;10.43;8.53;;;7.80;99.90;;;;;;5043884;28;20697;-81
2023/12/14 04:27:04;;;;;;;10.83;8.10;;;7.90;99.90;;;;;;5057591;28;20217;-81
2023/12/14 04:29:31;;;;;;;10.97;8.60;;;8.00;99.90;;;;;;5040861;28;20226;-82
2023/12/14 04:31:59;;;;;;;11.67;8.03;;;7.90;99.90;;;;;;5054325;28;20201;-81
2023/12/14 04:34:26;;;;;;;9.63;6.93;;;8.00;99.90;;;;;;5044435;28;20199;-81
2023/12/14 04:36:57;;;;;;;10.10;8.10;;;8.10;99.90;;;;;;5036539;28;20223;-82
2023/12/14 04:39:25;;;;;;;8.93;7.13;;;8.00;99.90;;;;;;5050189;28;20191;-81
2023/12/14 04:41:54;;;;;;;8.67;7.03;;;7.80;99.90;;;;;;5036295;28;20199;-81
2023/12/14 04:44:22;;;;;;;11.53;8.13;;;8.00;99.90;;;;;;5036499;28;20221;-81
2023/12/14 04:46:50;;;;;;;8.97;7.40;;;7.80;99.90;;;;;;5032162;28;20216;-81
2023/12/14 04:49:18;;;;;;;9.20;7.27;;;7.80;99.90;;;;;;5061015;28;20214;-81
2023/12/14 04:51:45;;;;;;;9.17;7.20;;;7.90;99.90;;;;;;5054536;28;20198;-81
2023/12/14 04:54:13;;;;;;;9.80;7.87;;;7.70;99.90;;;;;;5057125;28;20198;-81
2023/12/14 04:56:41;;;;;;;10.87;7.80;;;7.60;99.90;;;;;;5056188;28;20218;-81
2023/12/14 04:59:10;;;;;;;9.87;7.27;;;7.60;99.90;;;;;;5045600;28;20190;-81
2023/12/14 05:01:37;;;;;;;10.03;7.50;;;7.70;99.90;;;;;;5024659;28;20202;-81
2023/12/14 05:04:05;;;;;;;11.03;7.83;;;7.60;99.90;;;;;;5035036;28;20210;-82
2023/12/14 05:06:33;;;;;;;11.60;7.87;;;7.60;99.90;;;;;;5047121;28;20218;-81
2023/12/14 05:09:03;;;;;;;10.23;7.77;;;7.50;99.90;;;;;;5036516;28;20226;-81
2023/12/14 05:11:30;;;;;;;9.60;7.70;;;7.40;99.90;;;;;;5037742;28;20187;-81
2023/12/14 05:13:58;;;;;;;10.53;7.80;;;7.50;99.90;;;;;;5036782;28;20202;-81
2023/12/14 05:16:27;;;;;;;10.10;7.80;;;7.60;99.90;;;;;;5037952;28;20589;-80
2023/12/14 05:18:55;;;;;;;11.03;7.40;;;7.60;99.90;;;;;;5050136;28;20183;-81
2023/12/14 05:21:22;;;;;;;9.13;7.10;;;7.60;99.90;;;;;;5055137;28;20197;-81
2023/12/14 05:23:50;;;;;;;9.30;7.37;;;7.70;99.90;;;;;;5038873;28;20198;-81
2023/12/14 05:26:17;;;;;;;12.17;8.03;;;7.80;99.90;;;;;;5050443;28;20241;-81
2023/12/14 05:28:45;;;;;;;11.30;7.43;;;7.70;99.90;;;;;;5055240;28;20206;-81
2023/12/14 05:31:13;;;;;;;10.83;7.33;;;7.80;99.90;;;;;;5045178;28;20225;-81
2023/12/14 05:33:42;;;;;;;10.03;7.43;;;7.80;99.90;;;;;;5045934;28;20202;-80
2023/12/14 05:36:10;;;;;;;11.00;7.90;;;7.90;99.90;;;;;;5053205;28;20218;-81
2023/12/14 05:38:39;;;;;;;10.20;8.37;;;7.80;99.90;;;;;;5053560;28;20197;-81
2023/12/14 05:41:07;;;;;;;11.53;9.43;;;7.70;99.90;;;;;;5053559;28;20218;-82
2023/12/14 05:43:34;;;;;;;10.27;7.97;;;7.70;99.90;;;;;;5034775;28;20210;-82
2023/12/14 05:46:02;;;;;;;11.93;8.60;;;7.80;99.90;;;;;;5041434;28;20226;-82
2023/12/14 05:48:29;;;;;;;11.73;8.73;;;7.90;99.90;;;;;;5053377;28;20214;-82
2023/12/14 05:51:01;;;;;;;11.53;9.13;;;7.80;99.90;;;;;;5052658;28;20593;-82
2023/12/14 05:53:29;;;;;;;11.57;8.53;;;7.80;99.90;;;;;;5052146;28;20698;-82
2023/12/14 05:55:56;;;;;;;12.33;9.43;;;7.70;99.90;;;;;;5052277;28;20703;-82
2023/12/14 05:58:23;;;;;;;11.70;8.90;;;7.70;99.90;;;;;;5045332;28;20202;-82
2023/12/14 06:00:51;;;;;;;13.97;9.13;;;7.70;99.90;;;;;;5039833;28;20199;-82
2023/12/14 06:03:18;;;;;;;13.57;9.60;;;7.70;99.90;;;;;;5045241;28;20202;-82
2023/12/14 06:05:46;;;;;;;12.93;10.20;;;7.80;99.90;;;;;;5038830;28;20225;-82
2023/12/14 06:08:15;;;;;;;15.57;10.40;;;8.00;99.90;;;;;;5039550;28;20207;-82
2023/12/14 06:10:42;;;;;;;14.43;10.30;;;7.90;99.90;;;;;;5035851;28;20203;-82
2023/12/14 06:13:09;;;;;;;13.80;9.93;;;7.80;99.90;;;;;;5050669;28;20210;-82
2023/12/14 06:15:37;;;;;;;12.83;10.00;;;7.80;99.90;;;;;;5040974;28;20210;-82
2023/12/14 06:18:04;;;;;;;15.03;10.20;;;7.70;99.90;;;;;;5040092;28;20548;-82
2023/12/14 06:20:33;;;;;;;13.60;9.77;;;7.80;99.90;;;;;;5051141;28;20216;-82
2023/12/14 06:23:00;;;;;;;14.63;10.27;;;7.80;99.90;;;;;;5050438;28;20201;-82
2023/12/14 06:25:29;;;;;;;12.77;9.00;;;7.80;99.90;;;;;;5043768;28;20223;-82
2023/12/14 06:27:57;;;;;;;12.87;9.10;;;7.60;99.90;;;;;;5039064;28;20199;-82
2023/12/14 06:30:24;;;;;;;11.30;8.17;;;7.60;99.90;;;;;;5022654;28;20230;-82
2023/12/14 06:32:52;;;;;;;11.93;8.10;;;7.70;99.90;;;;;;5039378;28;20214;-82
2023/12/14 06:35:19;;;;;;;13.57;9.50;;;7.70;99.90;;;;;;5038466;28;20225;-84
2023/12/14 06:37:46;;;;;;;12.87;9.33;;;7.80;99.90;;;;;;5035231;28;20191;-84
2023/12/14 06:40:14;;;;;;;12.40;8.97;;;7.70;99.90;;;;;;5044652;28;20198;-84
2023/12/14 06:42:43;;;;;;;12.93;8.90;;;7.70;99.90;;;;;;5042265;28;20202;-84
2023/12/14 06:45:11;;;;;;;11.47;8.77;;;7.70;99.90;;;;;;5033449;28;20199;-83
2023/12/14 06:47:41;;;;;;;12.17;8.60;;;7.70;99.90;;;;;;5038971;28;20710;-83
2023/12/14 06:50:09;;;;;;;10.27;8.23;;;7.80;99.90;;;;;;5045549;28;20236;-83
2023/12/14 06:52:40;;;;;;;11.73;7.60;;;7.80;99.90;;;;;;5031551;28;20683;-83
2023/12/14 06:55:22;;;;;;;11.63;8.67;;;7.80;99.90;;;;;;5035754;28;20210;-83
2023/12/14 06:58:11;;;;;;;12.80;9.90;;;7.80;99.90;;;;;;5029774;28;20210;-83
2023/12/14 07:00:38;;;;;;;12.40;9.20;;;7.70;99.90;;;;;;5035089;28;20202;-83
2023/12/14 07:03:12;;;;;;;11.90;9.10;;;7.70;99.90;;;;;;5041041;28;20207;-82
2023/12/14 07:05:43;;;;;;;14.43;9.67;;;7.60;99.90;;;;;;5034106;28;20215;-82
2023/12/14 07:08:11;;;;;;;13.63;10.37;;;7.50;99.90;;;;;;5036692;28;20214;-82
2023/12/14 07:10:38;;;;;;;14.53;10.73;;;7.50;99.90;;;;;;5034403;28;20219;-82
2023/12/14 07:13:08;;;;;;;12.70;10.47;;;7.50;99.90;;;;;;5032464;28;20218;-82
2023/12/14 07:15:37;;;;;;;13.50;9.63;;;7.40;99.90;;;;;;5042771;28;20223;-83
2023/12/14 07:18:05;;;;;;;11.10;9.60;;;7.50;99.90;;;;;;5041576;28;20562;-82
2023/12/14 07:20:32;;;;;;;13.90;9.97;;;7.20;99.90;;;;;;5030237;28;20206;-82
2023/12/14 07:23:00;;;;;;;15.10;9.33;;;7.20;99.90;;;;;;5038425;28;20207;-82
2023/12/14 07:25:27;;;;;;;13.33;9.73;;;7.20;99.90;;;;;;5040136;28;20226;-82
2023/12/14 07:27:55;;;;;;;15.47;10.63;;;7.20;99.90;;;;;;5040681;28;20649;-82
2023/12/14 07:30:24;;;;;;;12.90;9.07;;;7.20;99.90;;;;;;5032828;28;20227;-82
2023/12/14 07:32:52;;;;;;;13.23;9.63;;;7.30;99.90;;;;;;5032427;28;20204;-83
2023/12/14 07:35:19;;;;;;;13.60;10.27;;;7.20;99.90;;;;;;5035626;28;20234;-83
2023/12/14 07:37:47;;;;;;;13.23;10.30;;;7.20;99.90;;;;;;5035065;28;20195;-83
2023/12/14 07:40:14;;;;;;;14.10;9.23;;;7.20;99.90;;;;;;5035581;28;20561;-83
2023/12/14 07:42:41;;;;;;;13.17;9.20;;;7.10;99.90;;;;;;5038357;28;20199;-82
2023/12/14 07:45:10;;;;;;;12.93;9.53;;;7.10;99.90;;;;;;5039851;28;20195;-83
2023/12/14 07:47:39;;;;;;;12.20;9.47;;;7.10;99.90;;;;;;5042212;28;20207;-82
2023/12/14 07:50:07;;;;;;;13.77;9.73;;;7.20;99.90;;;;;;5036988;28;20712;-82
2023/12/14 07:52:35;;;;;;;13.53;10.00;;;7.20;99.90;;;;;;5036365;28;20214;-82
2023/12/14 07:55:03;;;;;;;11.97;9.33;;;7.00;99.90;;;;;;5039217;28;20213;-83
2023/12/14 07:57:30;;;;;;;12.10;9.07;;;7.00;99.90;;;;;;5036823;28;20653;-82
2023/12/14 07:59:58;;;;;;;14.47;9.67;;;6.90;99.90;;;;;;5035866;28;20195;-84
2023/12/14 08:02:25;;;;;;;12.60;9.33;;;6.90;99.90;;;;;;5048170;28;20662;-83
2023/12/14 08:04:54;;;;;;;12.27;9.50;;;7.00;99.90;;;;;;5043889;28;20198;-83
2023/12/14 08:07:22;;;;;;;12.43;9.47;;;6.90;99.90;;;;;;5043399;28;20202;-83
2023/12/14 08:09:49;;;;;;;13.93;9.80;;;7.10;99.90;;;;;;5036407;28;20222;-84
2023/12/14 08:12:17;;;;;;;11.67;9.40;;;7.10;99.90;;;;;;5032499;28;20230;-82
2023/12/14 08:14:44;;;;;;;11.00;9.47;;;7.10;99.90;;;;;;5042633;28;20203;-82
2023/12/14 08:17:11;;;;;;;10.43;9.23;;;7.30;99.90;;;;;;5037046;28;20223;-83
2023/12/14 08:19:39;;;;;;;13.67;10.03;;;7.30;99.90;;;;;;5037515;28;20198;-83
2023/12/14 08:22:10;;;;;;;12.83;9.47;;;7.40;99.90;;;;;;5051040;28;20207;-83
2023/12/14 08:24:38;;;;;;;11.23;9.03;;;7.40;99.90;;;;;;5058285;28;20203;-82
2023/12/14 08:27:06;;;;;;;11.40;8.70;;;7.40;99.90;;;;;;5035183;28;20230;-82
2023/12/14 08:29:38;;;;;;;12.07;8.80;;;7.30;99.90;;;;;;5055235;28;20198;-82
2023/12/14 08:32:06;;;;;;;12.77;9.30;;;7.40;99.90;;;;;;5035861;28;20202;-82
2023/12/14 08:34:34;;;;;;;12.27;9.00;;;7.40;99.90;;;;;;5043020;28;20198;-82
2023/12/14 08:37:02;;;;;;;13.43;9.93;;;7.40;99.90;;;;;;5047554;28;20293;-82
2023/12/14 08:39:31;;;;;;;15.10;10.40;;;7.30;99.90;;;;;;5055184;28;20206;-82
2023/12/14 08:41:59;;;;;;;13.80;10.03;;;7.30;99.90;;;;;;5049056;28;20206;-82
2023/12/14 08:44:26;;;;;;;13.67;9.57;;;7.20;99.90;;;;;;5044575;28;20195;-82
2023/12/14 08:46:54;;;;;;;12.63;9.87;;;7.10;99.90;;;;;;5052667;28;20699;-82
2023/12/14 08:49:23;;;;;;;13.80;10.20;;;6.90;99.90;;;;;;5041299;28;20570;-82
2023/12/14 08:51:50;;;;;;;15.27;10.63;;;7.00;99.90;;;;;;5047496;28;20269;-83
2023/12/14 08:54:17;;;;;;;14.37;10.80;;;7.00;99.90;;;;;;5055069;28;20199;-83
2023/12/14 08:56:47;;;;;;;15.30;10.87;;;7.10;99.90;;;;;;5054783;28;20226;-82
2023/12/14 08:59:15;;;;;;;13.17;10.27;;;7.20;99.90;;;;;;5054848;28;20198;-83
2023/12/14 09:01:42;;;;;;;13.70;10.13;;;7.30;99.90;;;;;;5054407;28;20187;-82
2023/12/14 09:04:09;;;;;;;16.47;11.47;;;7.30;99.90;;;;;;5050079;28;20188;-82
2023/12/14 09:06:37;;;;;;;14.23;11.27;;;7.10;99.90;;;;;;5044568;28;20219;-82
2023/12/14 09:09:04;;;;;;;13.90;10.63;;;7.10;99.90;;;;;;5054057;28;20198;-82
2023/12/14 09:11:32;;;;;;;13.77;10.67;;;7.00;99.90;;;;;;5053364;28;20214;-82
2023/12/14 09:14:00;;;;;;;14.23;11.23;;;7.00;99.90;;;;;;5054371;28;20198;-82
2023/12/14 09:16:28;;;;;;;15.83;11.97;;;7.10;99.90;;;;;;5053860;28;20275;-82
2023/12/14 09:18:55;;;;;;;15.93;12.03;;;7.10;99.90;;;;;;5046351;28;20194;-82
2023/12/14 09:21:23;;;;;;;17.50;12.57;;;7.10;99.90;;;;;;5046675;28;20189;-82
2023/12/14 09:23:50;;;;;;;16.90;12.20;;;7.10;99.90;;;;;;5053269;28;20205;-82
2023/12/14 09:26:17;;;;;;;17.20;11.97;;;7.10;99.90;;;;;;5053450;28;20230;-83
2023/12/14 09:28:45;;;;;;;17.47;12.40;;;7.00;99.90;;;;;;5053711;28;20198;-83
2023/12/14 09:31:15;;;;;;;17.87;12.90;;;7.00;99.90;;;;;;5053671;28;20228;-82
2023/12/14 09:33:43;;;;;;;19.50;12.30;;;7.00;99.90;;;;;;5051786;28;20186;-83
2023/12/14 09:36:10;;;;;;;17.33;12.77;;;7.10;99.90;;;;;;5042044;28;20411;-82
2023/12/14 09:38:38;;;;;;;19.07;13.37;;;7.20;99.90;;;;;;5044266;28;20194;-83
2023/12/14 09:41:07;;;;;;;17.77;12.83;;;7.20;99.90;;;;;;5030158;28;20561;-83
2023/12/14 09:43:34;;;;;;;18.83;12.67;;;7.30;99.90;;;;;;5029188;28;20202;-83
2023/12/14 09:46:03;;;;;;;19.33;13.53;;;7.40;99.90;;;;;;5026539;28;20218;-83
2023/12/14 09:48:33;;;;;;;21.33;13.53;;;7.20;99.90;;;;;;5032149;28;20653;-83
2023/12/14 09:51:00;;;;;;;20.27;13.07;;;7.30;99.90;;;;;;5028506;28;20216;-83
2023/12/14 09:53:28;;;;;;;22.30;14.43;;;7.30;99.90;;;;;;5046696;28;20220;-84
2023/12/14 09:55:55;;;;;;;23.50;15.80;;;7.40;99.90;;;;;;5043162;28;20689;-82
2023/12/14 09:58:24;;;;;;;21.60;14.83;;;7.50;99.90;;;;;;5033353;28;20266;-82
2023/12/14 10:00:51;;;;;;;21.63;14.60;;;7.40;99.90;;;;;;5034722;28;20202;-82
2023/12/14 10:03:21;;;;;;;20.17;13.83;;;7.40;99.90;;;;;;5031573;28;20211;-81
2023/12/14 10:05:50;;;;;;;21.73;14.53;;;7.40;99.90;;;;;;5031316;28;20227;-81
2023/12/14 10:08:18;;;;;;;20.37;14.13;;;7.30;99.90;;;;;;5029448;28;20564;-81
2023/12/14 10:10:48;;;;;;;18.77;14.63;;;7.20;99.90;;;;;;5050133;28;20221;-81
2023/12/14 10:13:16;;;;;;;24.97;15.93;;;7.20;99.90;;;;;;5042446;28;20214;-82
2023/12/14 10:15:44;;;;;;;22.43;14.67;;;7.30;99.90;;;;;;5035508;28;20588;-81
2023/12/14 10:18:11;;;;;;;20.90;14.60;;;7.40;99.90;;;;;;5033839;28;20198;-81
2023/12/14 10:20:40;;;;;;;20.77;14.00;;;7.40;99.90;;;;;;5055490;28;20194;-81
2023/12/14 10:23:10;;;;;;;21.63;13.73;;;7.30;99.90;;;;;;5030417;28;20202;-81
2023/12/14 10:25:37;;;;;;;20.00;14.20;;;7.30;99.90;;;;;;5033581;28;20230;-80
2023/12/14 10:28:05;;;;;;;20.70;14.57;;;7.40;99.90;;;;;;5036516;28;20210;-80
2023/12/14 10:30:32;;;;;;;24.07;14.47;;;7.40;99.90;;;;;;5035706;28;20205;-80
2023/12/14 10:33:00;;;;;;;19.17;12.53;;;7.30;99.90;;;;;;5026810;28;20602;-81
2023/12/14 10:35:27;;;;;;;16.63;11.47;;;7.30;99.90;;;;;;5031851;28;20220;-80
2023/12/14 10:37:59;;;;;;;17.70;12.57;;;7.40;99.90;;;;;;5042413;28;20194;-80
2023/12/14 10:40:30;;;;;;;20.73;13.47;;;7.30;99.90;;;;;;5034458;28;20195;-81
2023/12/14 10:43:00;;;;;;;19.30;12.77;;;7.30;99.90;;;;;;5033108;28;20199;-81
2023/12/14 10:45:31;;;;;;;18.33;12.93;;;7.30;99.90;;;;;;5041082;28;20225;-81
2023/12/14 10:48:00;;;;;;;21.03;12.57;;;7.30;99.90;;;;;;5035163;28;20203;-81
2023/12/14 10:50:30;;;;;;;16.57;11.60;;;7.30;99.90;;;;;;5034524;28;20563;-81
2023/12/14 10:52:58;;;;;;;15.77;11.60;;;7.40;99.90;;;;;;5036273;28;20218;-81
2023/12/14 10:55:32;;;;;;;18.57;12.13;;;7.20;99.90;;;;;;5034367;28;20231;-82
2023/12/14 10:58:00;;;;;;;15.73;11.33;;;7.20;99.90;;;;;;5034835;28;20645;-81
2023/12/14 11:00:28;;;;;;;17.17;11.67;;;7.30;99.90;;;;;;5036837;28;20214;-80
2023/12/14 11:02:59;;;;;;;16.90;11.33;;;7.20;99.90;;;;;;5039901;28;20199;-81
2023/12/14 11:05:30;;;;;;;16.50;11.43;;;7.20;99.90;;;;;;5038552;28;20219;-80
2023/12/14 11:08:03;;;;;;;18.70;11.57;;;7.20;99.90;;;;;;5038266;28;20195;-80
2023/12/14 11:10:40;;;;;;;18.27;11.07;;;7.20;99.90;;;;;;5038895;28;20195;-81
2023/12/14 11:13:10;;;;;;;15.80;10.63;;;7.20;99.90;;;;;;5039313;28;20233;-79
2023/12/14 11:15:39;;;;;;;19.40;11.77;;;7.30;99.90;;;;;;5038211;28;20234;-80
2023/12/14 11:18:24;;;;;;;14.93;10.47;;;7.40;99.90;;;;;;5038391;28;20684;-79
2023/12/14 11:20:54;;;;;;;15.40;10.70;;;7.40;99.90;;;;;;5045149;28;20206;-80
2023/12/14 11:23:38;;;;;;;16.10;10.63;;;7.50;99.90;;;;;;5039828;28;20194;-80
2023/12/14 11:26:10;;;;;;;17.37;11.70;;;7.40;99.90;;;;;;5052758;28;20688;-79
2023/12/14 11:28:41;;;;;;;15.87;10.20;;;7.40;99.90;;;;;;5040361;28;20206;-80
2023/12/14 11:31:12;;;;;;;16.13;10.87;;;7.20;99.90;;;;;;5036886;28;20570;-81
2023/12/14 11:33:39;;;;;;;13.27;10.07;;;7.20;99.90;;;;;;5033803;28;20199;-81
2023/12/14 11:36:08;;;;;;;17.17;11.53;;;7.20;99.90;;;;;;5038049;28;20234;-82
2023/12/14 11:38:36;;;;;;;15.90;10.67;;;7.30;99.90;;;;;;5036623;28;20210;-82
2023/12/14 11:41:04;;;;;;;18.77;11.80;;;7.30;99.90;;;;;;5035979;28;20207;-81
2023/12/14 11:43:40;;;;;;;15.97;10.80;;;7.30;99.90;;;;;;5040372;28;20202;-81
2023/12/14 11:46:15;;;;;;;14.43;10.60;;;6.90;99.90;;;;;;5037845;28;20219;-81
2023/12/14 11:48:45;;;;;;;14.30;10.33;;;6.70;99.90;;;;;;5040396;28;20213;-82
2023/12/14 11:51:19;;;;;;;16.83;11.27;;;6.70;99.90;;;;;;5041798;28;20203;-82
2023/12/14 11:53:47;;;;;;;17.77;11.50;;;6.70;99.90;;;;;;5045006;28;20198;-78
2023/12/14 11:56:17;;;;;;;18.33;11.67;;;6.60;99.90;;;;;;5047176;28;20226;-79
2023/12/14 11:58:47;;;;;;;18.17;11.63;;;6.60;99.90;;;;;;5042080;28;20198;-78
2023/12/14 12:01:16;;;;;;;16.57;10.63;;;6.70;99.90;;;;;;5037023;28;20203;-78
2023/12/14 12:03:44;;;;;;;16.63;11.10;;;6.70;99.90;;;;;;5035737;28;20210;-79
2023/12/14 12:06:21;;;;;;;17.37;11.40;;;6.60;99.90;;;;;;5040232;28;20210;-81
2023/12/14 12:08:49;;;;;;;18.60;12.30;;;6.80;99.90;;;;;;5033362;28;20195;-77
2023/12/14 12:11:18;;;;;;;18.57;11.50;;;6.80;99.90;;;;;;5033401;28;20205;-79
2023/12/14 12:13:51;;;;;;;16.90;11.37;;;6.90;99.90;;;;;;5037520;28;20218;-81
2023/12/14 12:16:19;;;;;;;15.83;11.73;;;6.90;99.90;;;;;;5037714;28;20230;-81
2023/12/14 12:18:47;;;;;;;17.83;11.80;;;6.80;99.90;;;;;;5034580;28;20210;-80
2023/12/14 12:21:14;;;;;;;17.13;11.60;;;6.80;99.90;;;;;;5051166;28;20211;-82
2023/12/14 12:23:42;;;;;;;19.20;11.87;;;6.90;99.90;;;;;;5031766;28;20208;-83
2023/12/14 12:26:10;;;;;;;16.53;11.17;;;7.00;99.90;;;;;;5034421;28;20222;-82
2023/12/14 12:28:38;;;;;;;17.03;11.40;;;7.00;99.90;;;;;;5033808;28;20211;-81
2023/12/14 12:31:07;;;;;;;16.60;11.33;;;6.90;99.90;;;;;;5027117;28;20214;-79
2023/12/14 12:55:57;;;;;;;16.37;11.27;;;7.00;99.90;;;;;;5032311;28;20206;-81
2023/12/14 12:58:24;;;;;;;15.67;10.40;;;7.10;99.90;;;;;;5030629;28;20784;-76
2023/12/14 13:00:52;;;;;;;17.13;12.37;;;7.10;99.90;;;;;;5030455;28;20595;-76
2023/12/14 13:03:19;;;;;;;17.17;11.40;;;7.00;99.90;;;;;;5031440;28;20203;-76
2023/12/14 13:05:47;;;;;;;17.90;11.83;;;7.00;99.90;;;;;;5030589;28;20210;-79
2023/12/14 13:08:15;;;;;;;15.80;11.43;;;6.80;99.90;;;;;;5036650;28;20588;-80
2023/12/14 13:10:42;;;;;;;17.00;11.50;;;7.10;99.90;;;;;;5033737;28;20554;-81